createdAt,value
2016-11-16T19:26:02.768Z,8280
2016-11-16T19:26:40.816Z,8084
2016-11-16T19:27:51.993Z,7724
2016-11-16T19:29:03.119Z,7364
2016-11-16T19:30:13.919Z,7120
2016-11-16T19:31:25.132Z,7248
2016-11-16T19:32:36.053Z,7444
2016-11-16T19:33:46.768Z,7628
2016-11-16T19:34:57.872Z,7864
2016-11-16T19:36:08.580Z,8120
2016-11-16T19:37:19.869Z,8452
2016-11-16T19:38:30.582Z,8580
2016-11-16T19:39:41.723Z,8568
2016-11-16T19:40:55.523Z,8440
2016-11-16T19:42:06.231Z,8368
2016-11-16T19:43:16.938Z,8476
2016-11-16T19:44:28.017Z,8444
2016-11-16T19:45:39.058Z,8316
2016-11-16T19:46:49.819Z,8324
2016-11-16T19:48:00.562Z,8384
2016-11-16T19:49:11.367Z,8388
2016-11-16T19:50:23.778Z,8344
2016-11-16T19:51:35.214Z,8268
2016-11-16T19:52:46.028Z,8452
2016-11-16T19:53:57.197Z,9432
2016-11-16T19:55:08.010Z,11140
2016-11-16T19:56:19.495Z,12944
2016-11-16T19:57:30.596Z,14356
2016-11-16T19:58:41.354Z,15124
2016-11-16T19:59:52.113Z,15044
2016-11-16T20:01:03.862Z,15016
2016-11-16T20:02:14.575Z,15436
2016-11-16T20:03:25.728Z,15300
2016-11-16T20:04:36.896Z,13768
2016-11-16T20:05:47.644Z,11948
2016-11-16T20:06:58.485Z,10704
2016-11-16T20:08:09.125Z,9700
2016-11-16T20:09:19.920Z,8688
2016-11-16T20:10:30.615Z,7820
2016-11-16T20:11:41.322Z,7744
2016-11-16T20:12:52.172Z,8180
2016-11-16T20:14:02.891Z,8308
2016-11-16T20:15:13.590Z,7952
2016-11-16T20:16:24.719Z,7560
2016-11-16T20:17:35.403Z,7296
2016-11-16T20:18:46.606Z,7180
2016-11-16T20:19:57.721Z,7152
2016-11-16T20:21:08.930Z,6936
2016-11-16T20:22:20.186Z,6712
2016-11-16T20:23:30.941Z,6324
2016-11-16T20:24:41.690Z,4796
2016-11-16T20:25:52.472Z,1896
2016-11-16T20:27:04.750Z,760
2016-11-16T20:28:15.436Z,704
2016-11-16T20:29:26.153Z,704
2016-11-16T20:30:37.046Z,788
2016-11-16T20:31:47.762Z,480
2016-11-16T20:32:59.003Z,376
2016-11-16T20:34:09.687Z,364
2016-11-16T20:35:21.185Z,540
2016-11-16T20:36:32.026Z,656
2016-11-16T20:37:43.601Z,696
2016-11-16T20:38:54.347Z,1304
2016-11-16T20:40:05.068Z,1524
2016-11-16T20:41:16.211Z,1084
2016-11-16T20:42:27.706Z,1296
2016-11-16T20:43:38.733Z,1568
2016-11-16T20:44:49.406Z,1216
2016-11-16T20:46:00.153Z,1152
2016-11-16T20:47:11.234Z,872
2016-11-16T20:48:22.086Z,568
2016-11-16T20:49:33.330Z,416
2016-11-16T20:50:44.487Z,332
2016-11-16T20:51:55.265Z,304
2016-11-16T20:53:06.471Z,356
2016-11-16T20:54:17.677Z,456
2016-11-16T20:55:28.347Z,504
2016-11-16T20:56:39.587Z,508
2016-11-16T20:57:50.642Z,500
2016-11-16T20:59:01.734Z,484
2016-11-16T21:00:12.800Z,468
2016-11-16T21:01:23.541Z,452
2016-11-16T21:02:34.622Z,432
2016-11-16T21:03:45.568Z,412
2016-11-16T21:04:56.664Z,400
2016-11-16T21:06:07.443Z,376
2016-11-16T21:07:18.207Z,344
2016-11-16T21:08:28.952Z,300
2016-11-16T21:09:39.984Z,260
2016-11-16T21:10:51.102Z,220
2016-11-16T21:12:01.944Z,192
2016-11-16T21:13:12.677Z,168
2016-11-16T21:14:23.392Z,140
2016-11-16T21:15:35.920Z,116
2016-11-16T21:16:46.552Z,100
2016-11-16T21:17:57.458Z,92
2016-11-16T21:19:08.589Z,84
2016-11-16T21:20:19.738Z,72
2016-11-16T21:21:30.389Z,56
2016-11-16T21:22:41.105Z,28
2016-11-16T21:23:51.743Z,16
2016-11-16T21:25:03.229Z,8
2016-11-16T21:26:14.289Z,8
2016-11-16T21:27:24.954Z,16
2016-11-16T21:28:35.631Z,24
2016-11-16T21:29:46.336Z,28
2016-11-16T21:30:57.008Z,28
2016-11-16T21:32:08.788Z,28
2016-11-16T21:33:20.253Z,28
2016-11-16T21:34:31.561Z,28
2016-11-16T21:35:42.451Z,24
2016-11-16T21:36:53.137Z,20
2016-11-16T21:38:03.721Z,20
2016-11-16T21:39:14.814Z,16
2016-11-16T21:40:25.582Z,12
2016-11-16T21:41:36.329Z,16
2016-11-16T21:42:47.091Z,12
2016-11-16T21:43:57.811Z,8
2016-11-16T21:45:08.916Z,12
2016-11-16T21:46:20.158Z,8
2016-11-16T21:47:31.072Z,8
2016-11-16T21:49:55.835Z,4
2016-11-16T21:51:07.445Z,4
2016-11-16T21:52:18.106Z,4
2016-11-16T21:53:29.298Z,4
2016-11-16T21:54:39.991Z,0
2016-11-16T21:55:51.597Z,4
2016-11-16T21:57:02.345Z,4
2016-11-16T21:58:13.072Z,0
2016-11-16T21:59:23.972Z,0
2016-11-16T22:00:35.049Z,0
2016-11-16T22:01:45.841Z,0
2016-11-16T22:02:58.336Z,0
2016-11-16T22:04:09.018Z,0
2016-11-16T22:05:20.046Z,0
2016-11-16T22:06:30.757Z,0
2016-11-16T22:07:41.478Z,0
2016-11-16T22:08:52.161Z,0
2016-11-16T22:10:03.736Z,0
2016-11-16T22:11:14.572Z,0
2016-11-16T22:12:25.281Z,0
2016-11-16T22:13:36.703Z,0
2016-11-16T22:14:47.382Z,0
2016-11-16T22:15:58.038Z,0
2016-11-16T22:17:08.827Z,0
2016-11-16T22:18:19.933Z,0
2016-11-16T22:19:30.977Z,0
2016-11-16T22:20:42.093Z,0
2016-11-16T22:21:53.160Z,0
2016-11-16T22:23:03.839Z,0
2016-11-16T22:24:14.514Z,0
2016-11-16T22:25:25.563Z,0
2016-11-16T22:26:36.248Z,0
2016-11-16T22:27:46.863Z,0
2016-11-16T22:28:58.568Z,0
2016-11-16T22:30:09.269Z,0
2016-11-16T22:31:20.384Z,0
2016-11-16T22:32:31.156Z,0
2016-11-16T22:33:42.239Z,0
2016-11-16T22:34:53.778Z,0
2016-11-16T22:36:04.521Z,0
2016-11-16T22:37:15.220Z,0
2016-11-16T22:38:26.307Z,0
2016-11-16T22:39:37.468Z,0
2016-11-16T22:40:48.613Z,0
2016-11-16T22:41:59.719Z,0
2016-11-16T22:43:10.433Z,0
2016-11-16T22:44:21.127Z,0
2016-11-16T22:45:32.325Z,0
2016-11-16T22:46:43.671Z,0
2016-11-16T22:47:55.176Z,0
2016-11-16T22:49:06.285Z,0
2016-11-16T22:50:16.991Z,0
2016-11-16T22:51:27.727Z,0
2016-11-16T22:52:38.923Z,0
2016-11-16T22:53:49.613Z,0
2016-11-16T22:55:00.730Z,0
2016-11-16T22:56:11.364Z,0
2016-11-16T22:57:22.889Z,0
2016-11-16T22:58:33.586Z,0
2016-11-16T22:59:44.228Z,0
2016-11-16T23:00:54.962Z,0
2016-11-16T23:02:05.639Z,0
2016-11-16T23:03:16.417Z,0
2016-11-16T23:04:27.603Z,0
2016-11-16T23:05:38.315Z,0
2016-11-16T23:06:49.331Z,0
2016-11-16T23:08:00.048Z,0
2016-11-16T23:09:11.191Z,0
2016-11-16T23:10:22.650Z,0
2016-11-16T23:11:33.808Z,0
2016-11-16T23:12:44.875Z,0
2016-11-16T23:13:55.964Z,0
2016-11-16T23:15:06.660Z,0
2016-11-16T23:16:17.436Z,0
2016-11-16T23:17:28.202Z,0
2016-11-16T23:18:38.908Z,0
2016-11-16T23:19:50.079Z,0
2016-11-16T23:21:00.815Z,0
2016-11-16T23:22:12.013Z,0
2016-11-16T23:23:23.487Z,0
2016-11-16T23:24:34.193Z,0
2016-11-16T23:25:45.248Z,0
2016-11-16T23:26:55.852Z,0
2016-11-16T23:28:06.682Z,0
2016-11-16T23:29:17.801Z,0
2016-11-16T23:30:28.471Z,0
2016-11-16T23:31:39.539Z,0
2016-11-16T23:32:50.216Z,0
2016-11-16T23:34:01.649Z,0
2016-11-16T23:35:12.704Z,0
2016-11-16T23:36:23.836Z,0
2016-11-16T23:37:35.461Z,0
2016-11-16T23:38:46.898Z,0
2016-11-16T23:39:58.023Z,0
2016-11-16T23:41:08.764Z,0
2016-11-16T23:42:19.837Z,0
2016-11-16T23:43:31.410Z,0
2016-11-16T23:44:42.133Z,0
2016-11-16T23:45:53.232Z,0
2016-11-16T23:47:04.871Z,0
2016-11-16T23:48:15.965Z,0
2016-11-16T23:49:26.659Z,0
2016-11-16T23:50:37.284Z,0
2016-11-16T23:51:48.007Z,0
2016-11-16T23:52:58.738Z,0
2016-11-16T23:54:10.393Z,0
2016-11-16T23:55:21.473Z,0
2016-11-16T23:56:32.530Z,0
2016-11-16T23:57:44.176Z,0
2016-11-16T23:58:54.965Z,0
